Time;durP1;ratioP1;P1;durP2;ratioP2;P2;SDS_P1;SDS_P2;PMS_P1;PMS_P2;Temp;Humidity;BMP_temperature;BMP_pressure;BME280_temperature;BME280_humidity;BME280_pressure;Samples;Min_cycle;Max_cycle;Signal;HPM_P1;HPM_P2
2023/01/25 04:05:34;;;;;;;21.50;17.00;;;;;;;0.83;67.37;102337.28;106039;1280;613633;-80
2023/01/25 04:08:02;;;;;;;19.20;14.30;;;;;;;1.54;63.79;102335.10;108257;1251;119945;-79
2023/01/25 04:10:36;;;;;;;22.80;17.10;;;;;;;1.52;62.81;102340.16;108358;1254;59423;-79
2023/01/25 04:13:05;;;;;;;24.80;16.70;;;;;;;1.53;62.41;102347.77;108311;1254;71259;-79
2023/01/25 04:15:34;;;;;;;24.20;17.10;;;;;;;1.52;61.97;102350.40;108377;1254;70760;-79
2023/01/25 04:18:08;;;;;;;17.10;11.50;;;;;;;1.55;61.50;102348.30;108339;1254;72977;-79
2023/01/25 04:20:37;;;;;;;20.20;15.10;;;;;;;1.47;61.25;102344.23;108233;1254;59957;-82
2023/01/25 04:23:06;;;;;;;20.80;14.20;;;;;;;1.57;61.00;102345.49;108249;1253;60349;-80
2023/01/25 04:25:36;;;;;;;19.40;12.80;;;;;;;1.64;60.73;102344.43;108372;1254;72426;-80
2023/01/25 04:28:07;;;;;;;24.60;17.20;;;;;;;1.69;60.53;102339.95;108309;1254;72972;-80
2023/01/25 04:30:35;;;;;;;22.80;15.40;;;;;;;1.73;60.15;102343.35;108216;1253;71565;-80
2023/01/25 04:33:05;;;;;;;22.80;15.40;;;;;;;1.77;60.06;102339.13;108298;1254;60489;-80
2023/01/25 04:35:34;;;;;;;24.30;16.10;;;;;;;1.82;59.91;102340.73;108328;1252;59522;-81
2023/01/25 04:38:04;;;;;;;23.00;15.20;;;;;;;1.87;59.65;102341.78;108315;1253;72985;-78
2023/01/25 04:40:38;;;;;;;22.90;16.10;;;;;;;1.90;59.55;102340.58;108311;1254;73014;-80
2023/01/25 04:43:07;;;;;;;24.40;16.30;;;;;;;1.94;59.37;102338.80;108237;1253;72414;-79
2023/01/25 04:45:35;;;;;;;18.10;12.60;;;;;;;1.97;59.18;102340.78;108299;1253;59608;-80
2023/01/25 04:48:09;;;;;;;26.50;17.50;;;;;;;1.97;58.98;102341.27;108326;1253;59474;-80
2023/01/25 04:50:39;;;;;;;24.90;16.60;;;;;;;1.97;58.90;102336.66;108266;1254;72063;-80
2023/01/25 04:53:09;;;;;;;24.60;16.30;;;;;;;1.96;58.69;102338.38;108313;1253;72392;-79
2023/01/25 04:55:38;;;;;;;23.70;16.30;;;;;;;1.92;58.68;102337.94;108128;1254;72910;-80
2023/01/25 04:58:08;;;;;;;23.60;15.60;;;;;;;1.80;58.39;102332.94;108230;1255;59902;-80
2023/01/25 05:00:37;;;;;;;20.60;14.60;;;;;;;1.77;58.53;102336.77;108045;1257;59506;-81
2023/01/25 05:03:05;;;;;;;22.60;14.90;;;;;;;1.81;58.61;102340.27;108159;1255;72484;-80
2023/01/25 05:05:35;;;;;;;23.80;15.10;;;;;;;1.89;58.51;102344.17;108224;1258;73091;-80
2023/01/25 05:08:08;;;;;;;21.20;13.50;;;;;;;1.93;58.53;102342.35;108186;1254;72312;-81
2023/01/25 05:10:37;;;;;;;27.60;19.10;;;;;;;1.95;58.28;102341.88;108151;1258;59608;-80
2023/01/25 05:13:30;;;;;;;23.90;15.50;;;;;;;1.91;58.50;102342.77;108135;1254;61766;-81
2023/01/25 05:16:08;;;;;;;31.20;17.20;;;;;;;1.90;58.46;102349.02;108157;1254;73113;-81
2023/01/25 05:18:38;;;;;;;30.10;18.50;;;;;;;1.89;58.55;102350.82;108254;1255;73099;-79
2023/01/25 05:24:06;;;;;;;29.70;17.80;;;;;;;1.95;58.66;102353.81;108162;1254;60285;-79
2023/01/25 05:29:22;;;;;;;28.30;18.50;;;;;;;1.95;58.74;102357.58;108043;1254;73414;-79
2023/01/25 05:31:59;;;;;;;28.00;19.40;;;;;;;1.91;58.90;102357.59;108214;1259;73265;-79
2023/01/25 05:34:29;;;;;;;30.00;18.80;;;;;;;1.85;58.65;102358.27;108056;1254;72866;-80
2023/01/25 05:36:58;;;;;;;30.10;19.70;;;;;;;1.80;58.85;102352.02;108187;1254;60209;-81
2023/01/25 05:39:26;;;;;;;28.70;18.20;;;;;;;1.74;59.09;102349.38;108025;1254;59526;-81
2023/01/25 05:41:55;;;;;;;27.40;18.60;;;;;;;1.73;59.08;102348.25;108043;1255;73225;-78
2023/01/25 05:44:23;;;;;;;24.80;16.20;;;;;;;1.73;59.12;102344.39;108103;1257;71342;-82
2023/01/25 05:46:52;;;;;;;26.40;17.20;;;;;;;1.69;59.06;102344.48;108092;1254;71999;-79
2023/01/25 05:49:21;;;;;;;23.50;15.50;;;;;;;1.65;59.12;102339.92;108243;1254;60768;-80
2023/01/25 05:51:49;;;;;;;27.90;18.70;;;;;;;1.65;59.22;102338.18;108169;1254;59510;-80
2023/01/25 05:54:19;;;;;;;28.30;19.50;;;;;;;1.64;59.35;102337.14;108040;1258;72091;-80
2023/01/25 05:56:54;;;;;;;28.70;19.90;;;;;;;1.67;58.99;102338.55;108065;1257;70624;-82
2023/01/25 05:59:23;;;;;;;27.50;18.60;;;;;;;1.74;58.98;102335.58;108175;1257;71174;-82
2023/01/25 06:01:51;;;;;;;26.40;17.30;;;;;;;1.78;58.96;102331.65;108080;1255;59602;-80
2023/01/25 06:04:20;;;;;;;25.20;16.90;;;;;;;1.79;58.75;102334.63;108160;1255;59496;-80
2023/01/25 06:06:48;;;;;;;23.50;15.10;;;;;;;1.82;58.74;102336.95;108152;1254;72001;-80
2023/01/25 06:09:17;;;;;;;28.10;17.30;;;;;;;1.85;58.54;102339.67;108114;1254;73715;-81
2023/01/25 06:11:46;;;;;;;27.10;17.80;;;;;;;1.88;58.43;102341.95;108268;1254;72398;-81
2023/01/25 06:14:14;;;;;;;27.40;17.70;;;;;;;1.90;58.66;102342.33;108255;1254;60289;-82
2023/01/25 06:16:42;;;;;;;29.00;18.80;;;;;;;1.93;58.49;102345.38;108297;1254;59570;-80
2023/01/25 06:19:33;;;;;;;31.60;20.20;;;;;;;1.97;58.33;102347.94;108250;1254;72242;-82
2023/01/25 06:22:08;;;;;;;30.70;20.70;;;;;;;2.00;58.31;102344.89;108228;1254;72894;-81
2023/01/25 06:24:37;;;;;;;29.50;19.70;;;;;;;1.98;58.30;102343.10;108211;1254;71515;-82
2023/01/25 06:27:05;;;;;;;30.70;20.20;;;;;;;1.97;58.16;102339.70;108292;1254;59685;-80
2023/01/25 06:29:34;;;;;;;27.90;18.30;;;;;;;1.92;58.09;102343.05;108207;1254;61296;-80
2023/01/25 06:32:03;;;;;;;31.60;19.90;;;;;;;1.81;58.18;102342.70;108254;1254;74075;-80
2023/01/25 06:34:33;;;;;;;28.90;18.80;;;;;;;1.74;58.43;102336.73;108292;1254;72203;-81
2023/01/25 06:37:02;;;;;;;34.50;21.40;;;;;;;1.74;58.55;102337.31;108266;1254;72045;-81
2023/01/25 06:39:30;;;;;;;33.50;22.10;;;;;;;1.71;58.54;102340.58;108223;1254;60431;-82
2023/01/25 06:42:01;;;;;;;37.80;22.70;;;;;;;1.69;58.67;102342.13;108227;1254;59877;-82
2023/01/25 06:44:30;;;;;;;37.00;22.00;;;;;;;1.73;58.76;102334.77;108179;1255;72276;-80
2023/01/25 06:46:58;;;;;;;34.40;21.60;;;;;;;1.79;58.80;102335.54;108244;1254;71778;-81
2023/01/25 06:49:28;;;;;;;31.70;19.30;;;;;;;1.81;58.71;102340.45;108154;1254;73010;-81
2023/01/25 06:51:57;;;;;;;31.10;20.00;;;;;;;1.79;58.59;102339.63;108210;1257;59769;-82
2023/01/25 06:54:25;;;;;;;33.50;21.30;;;;;;;1.75;58.68;102340.50;108208;1254;60352;-81
2023/01/25 06:56:53;;;;;;;30.70;18.20;;;;;;;1.72;58.71;102336.64;108195;1253;72115;-81
2023/01/25 06:59:21;;;;;;;33.60;20.60;;;;;;;1.67;58.83;102333.42;108167;1257;72331;-80
2023/01/25 07:01:50;;;;;;;31.50;20.80;;;;;;;1.68;59.01;102334.09;108162;1256;72481;-80
2023/01/25 07:04:19;;;;;;;28.10;19.00;;;;;;;1.72;58.75;102332.53;108130;1257;58987;-80
2023/01/25 07:06:48;;;;;;;36.80;21.60;;;;;;;1.76;58.82;102332.92;108192;1257;60723;-81
2023/01/25 07:09:22;;;;;;;27.20;16.70;;;;;;;1.80;58.92;102335.11;108114;1258;72881;-80
2023/01/25 07:11:51;;;;;;;28.70;18.30;;;;;;;1.83;58.70;102332.70;108190;1258;72952;-82
2023/01/25 07:14:19;;;;;;;29.10;18.60;;;;;;;1.84;58.72;102330.27;108133;1255;72094;-82
2023/01/25 07:16:49;;;;;;;29.80;18.80;;;;;;;1.80;58.70;102328.60;108168;1254;60382;-84
2023/01/25 07:19:19;;;;;;;32.20;20.40;;;;;;;1.80;58.58;102325.79;108155;1257;61149;-83
2023/01/25 07:21:47;;;;;;;30.60;19.40;;;;;;;1.83;58.40;102326.14;108165;1254;72996;-82
2023/01/25 07:24:17;;;;;;;29.70;19.20;;;;;;;1.83;58.52;102322.62;108121;1257;74501;-82
2023/01/25 07:26:46;;;;;;;26.30;16.60;;;;;;;1.85;58.47;102318.95;108160;1257;72747;-82
2023/01/25 07:29:15;;;;;;;30.70;17.40;;;;;;;1.86;58.47;102323.37;108144;1255;59692;-83
2023/01/25 07:31:43;;;;;;;31.10;20.20;;;;;;;1.80;58.53;102324.02;108169;1258;60322;-83
2023/01/25 07:34:12;;;;;;;30.20;18.60;;;;;;;1.78;58.65;102328.98;108115;1257;72608;-84
2023/01/25 07:36:40;;;;;;;31.30;20.70;;;;;;;1.82;58.72;102327.20;108139;1257;71986;-82
2023/01/25 07:39:09;;;;;;;34.70;21.00;;;;;;;1.83;58.53;102321.60;108110;1254;72960;-81
2023/01/25 07:41:38;;;;;;;32.20;19.70;;;;;;;1.82;58.48;102322.91;108119;1255;60069;-82
2023/01/25 07:44:10;;;;;;;33.80;21.30;;;;;;;1.79;58.28;102322.92;108158;1254;59442;-82
2023/01/25 07:46:44;;;;;;;33.30;20.60;;;;;;;1.70;58.25;102324.15;108224;1255;73313;-83
2023/01/25 07:49:12;;;;;;;29.80;18.50;;;;;;;1.65;58.36;102321.83;108163;1258;72031;-84
2023/01/25 07:51:41;;;;;;;29.00;18.10;;;;;;;1.69;58.34;102321.81;108134;1257;71783;-82
2023/01/25 07:54:10;;;;;;;33.10;21.10;;;;;;;1.73;58.55;102320.55;108132;1254;61280;-82
2023/01/25 12:49:15;;;;;;;34.10;19.00;;;;;;;1.08;64.65;102145.23;105953;1279;614240;-81
2023/01/25 12:51:43;;;;;;;31.20;20.30;;;;;;;1.79;61.39;102140.71;107218;1264;125373;-80
2023/01/25 12:54:24;;;;;;;28.50;20.20;;;;;;;1.79;61.04;102143.91;107447;1265;59525;-80
2023/01/25 12:57:01;;;;;;;28.70;19.60;;;;;;;1.84;60.40;102140.27;107430;1266;70174;-80
2023/01/25 12:59:35;;;;;;;26.80;18.30;;;;;;;1.89;60.09;102138.64;107394;1267;72370;-81
2023/01/25 13:02:18;;;;;;;43.90;22.40;;;;;;;1.96;59.97;102138.63;107469;1266;71726;-81
2023/01/25 13:05:01;;;;;;;28.40;18.80;;;;;;;1.97;59.32;102137.98;107390;1266;60467;-81
2023/01/25 13:07:53;;;;;;;32.90;20.10;;;;;;;1.90;58.77;102139.30;107418;1266;59380;-81
2023/01/25 13:10:35;;;;;;;40.90;21.90;;;;;;;1.78;58.52;102139.64;107426;1269;72384;-81
2023/01/25 13:13:26;;;;;;;33.70;20.60;;;;;;;1.77;58.83;102136.89;107443;1267;73070;-81
2023/01/25 13:15:55;;;;;;;48.00;21.60;;;;;;;1.81;58.77;102133.39;107981;1257;73682;-81
2023/01/25 13:18:27;;;;;;;31.20;18.50;;;;;;;1.81;58.43;102133.55;107964;1256;59625;-81
2023/01/25 13:20:59;;;;;;;30.50;18.40;;;;;;;1.81;58.57;102131.38;107991;1257;59812;-81
2023/01/25 13:23:31;;;;;;;;;;;;;;;1.84;58.58;102130.50;107940;1256;73320;-81
2023/01/25 13:26:25;;;;;;;28.30;16.30;;;;;;;1.83;58.23;102132.92;107969;1257;70843;-81
2023/01/25 13:28:54;;;;;;;25.50;17.10;;;;;;;1.73;57.84;102131.77;107948;1256;72837;-81
2023/01/25 13:31:38;;;;;;;27.80;18.30;;;;;;;1.59;57.85;102131.60;108016;1260;59744;-81
2023/01/25 13:34:34;;;;;;;27.10;17.10;;;;;;;1.55;58.06;102123.42;108043;1255;59782;-82
2023/01/25 13:37:13;;;;;;;31.60;20.70;;;;;;;1.59;58.09;102124.52;108055;1258;72220;-81
2023/01/25 13:39:54;;;;;;;31.60;20.00;;;;;;;1.59;58.12;102120.54;107996;1257;72439;-81
2023/01/25 13:42:23;;;;;;;32.90;21.60;;;;;;;1.57;58.31;102111.38;107978;1256;70630;-81
2023/01/25 13:44:56;;;;;;;30.20;19.50;;;;;;;1.60;58.12;102110.36;107907;1256;60797;-79
2023/01/25 13:47:28;;;;;;;30.20;20.20;;;;;;;1.57;58.13;102106.67;107864;1257;60256;-79
2023/01/25 13:50:19;;;;;;;27.30;18.30;;;;;;;1.55;58.36;102100.80;107914;1257;72115;-79
2023/01/25 13:53:00;;;;;;;32.70;20.50;;;;;;;1.66;58.12;102097.68;108105;1257;71704;-77
2023/01/25 13:55:37;;;;;;;32.00;20.20;;;;;;;1.57;58.29;102097.05;108013;1257;73915;-79
2023/01/25 13:58:28;;;;;;;24.40;17.10;;;;;;;1.56;58.33;102099.92;107977;1258;59403;-78
2023/01/25 14:01:25;;;;;;;31.90;19.80;;;;;;;1.54;58.26;102102.64;108466;1257;59644;-78
2023/01/25 14:04:01;;;;;;;31.90;20.70;;;;;;;1.46;58.15;102105.78;108297;1257;71298;-79
2023/01/25 14:06:35;;;;;;;33.50;20.70;;;;;;;1.41;58.42;102099.77;107890;1258;72672;-81
2023/01/25 14:09:06;;;;;;;28.10;17.20;;;;;;;1.41;58.58;102097.67;107881;1257;73659;-79
2023/01/25 14:11:38;;;;;;;31.60;20.40;;;;;;;1.38;58.58;102094.09;107827;1261;60701;-82
2023/01/25 14:14:16;;;;;;;27.20;17.80;;;;;;;1.39;58.77;102089.79;107861;1257;61322;-80
2023/01/25 14:16:44;;;;;;;29.60;17.80;;;;;;;1.37;58.52;102090.30;107876;1257;73844;-80
2023/01/25 14:19:23;;;;;;;27.60;17.80;;;;;;;1.31;58.68;102088.73;107878;1257;72968;-79
2023/01/25 14:22:25;;;;;;;27.30;17.90;;;;;;;1.21;58.56;102092.14;107840;1257;73704;-80
2023/01/25 14:25:13;;;;;;;29.60;19.10;;;;;;;1.13;58.74;102093.55;107875;1257;61312;-80
2023/01/25 14:27:42;;;;;;;31.90;19.90;;;;;;;1.09;58.76;102093.85;107865;1257;61568;-80
2023/01/25 14:30:29;;;;;;;28.50;17.90;;;;;;;1.06;58.97;102089.83;107870;1257;73521;-81
2023/01/25 14:33:03;;;;;;;29.90;18.90;;;;;;;1.05;59.22;102094.33;107970;1256;72027;-81
2023/01/25 14:35:34;;;;;;;30.40;20.00;;;;;;;1.07;59.27;102095.83;107993;1256;73639;-81
2023/01/25 14:38:21;;;;;;;33.20;19.70;;;;;;;1.12;59.34;102092.69;107877;1257;61934;-81
2023/01/25 14:40:50;;;;;;;30.30;19.90;;;;;;;1.20;59.54;102097.52;107905;1261;60793;-80
2023/01/25 14:43:18;;;;;;;28.20;18.70;;;;;;;1.25;59.50;102098.25;107876;1257;70683;-78
2023/01/25 14:45:46;;;;;;;29.00;18.70;;;;;;;1.28;59.52;102094.94;107872;1257;71589;-83
2023/01/25 14:48:43;;;;;;;29.50;18.60;;;;;;;1.29;59.44;102087.17;107837;1261;72748;-82
2023/01/25 14:51:26;;;;;;;32.90;20.00;;;;;;;1.29;59.57;102091.69;107853;1257;59515;-80
2023/01/25 14:54:01;;;;;;;28.60;19.20;;;;;;;1.38;59.29;102090.73;107913;1257;60381;-79
2023/01/25 14:57:03;;;;;;;34.10;21.60;;;;;;;1.42;59.38;102088.58;107872;1257;72186;-79
2023/01/25 14:59:35;;;;;;;32.30;19.70;;;;;;;1.45;59.39;102084.64;107801;1257;73113;-79
2023/01/25 15:02:15;;;;;;;28.60;17.60;;;;;;;1.37;59.01;102087.54;107846;1257;72935;-80
2023/01/25 15:05:00;;;;;;;28.30;18.10;;;;;;;1.20;59.07;102083.70;107873;1257;59678;-80
2023/01/25 15:07:49;;;;;;;30.60;18.90;;;;;;;1.21;59.08;102083.25;107776;1263;61613;-80
2023/01/25 15:10:25;;;;;;;24.00;14.30;;;;;;;1.25;59.34;102083.02;107847;1257;74006;-81
2023/01/25 15:13:05;;;;;;;24.40;15.90;;;;;;;1.20;59.20;102077.59;107817;1257;72770;-80
2023/01/25 15:15:57;;;;;;;32.50;19.40;;;;;;;1.10;59.06;102079.25;107865;1259;72910;-79
2023/01/25 15:18:45;;;;;;;27.70;18.70;;;;;;;1.05;59.26;102081.86;107812;1258;61201;-80
2023/01/25 15:21:27;;;;;;;28.70;17.80;;;;;;;1.10;59.50;102083.23;107871;1257;60013;-80
2023/01/25 15:23:57;;;;;;;31.30;19.30;;;;;;;1.21;59.48;102083.76;107818;1257;73858;-82
2023/01/25 15:26:27;;;;;;;26.10;16.10;;;;;;;1.31;59.48;102081.11;107911;1262;72133;-79
2023/01/25 15:28:57;;;;;;;23.90;15.60;;;;;;;1.32;59.31;102074.73;107870;1256;72856;-79
2023/01/25 15:31:27;;;;;;;22.30;13.50;;;;;;;1.30;59.47;102079.48;107995;1256;60779;-80
2023/01/25 15:33:55;;;;;;;25.00;15.80;;;;;;;1.29;59.51;102080.44;107899;1257;61515;-79
2023/01/25 15:36:27;;;;;;;29.40;18.60;;;;;;;1.26;59.29;102073.60;107843;1257;73596;-78
2023/01/25 15:38:56;;;;;;;27.60;16.60;;;;;;;1.25;59.47;102069.16;107863;1257;70826;-79
2023/01/25 15:41:25;;;;;;;27.40;17.90;;;;;;;1.28;59.49;102070.21;107853;1257;73658;-79
2023/01/25 15:43:54;;;;;;;27.40;17.80;;;;;;;1.31;59.29;102067.24;107827;1262;59389;-78
2023/01/25 15:46:27;;;;;;;28.20;16.90;;;;;;;1.33;59.23;102066.92;107975;1260;59972;-78
2023/01/25 15:48:55;;;;;;;28.70;18.30;;;;;;;1.38;59.27;102064.44;107926;1256;72714;-78
2023/01/25 15:51:24;;;;;;;27.30;16.10;;;;;;;1.43;59.24;102061.27;107982;1256;71856;-80
2023/01/25 15:53:53;;;;;;;28.70;18.50;;;;;;;1.43;59.10;102056.16;108162;1254;70838;-80
2023/01/25 15:56:23;;;;;;;29.50;18.60;;;;;;;1.42;58.88;102057.34;108121;1254;59883;-81
2023/01/25 15:58:54;;;;;;;31.50;19.60;;;;;;;1.41;58.90;102056.58;108160;1254;61381;-80
2023/01/25 16:01:25;;;;;;;26.40;18.40;;;;;;;1.44;58.98;102056.30;108192;1254;70819;-78
2023/01/25 16:04:14;;;;;;;29.00;18.70;;;;;;;1.43;59.01;102056.73;108166;1254;72963;-79
2023/01/25 16:06:48;;;;;;;33.10;19.20;;;;;;;1.44;58.79;102051.52;108146;1254;72293;-79
2023/01/25 16:09:28;;;;;;;27.90;18.00;;;;;;;1.46;58.90;102055.23;108101;1254;59593;-79
2023/01/25 16:11:58;;;;;;;27.50;17.20;;;;;;;1.45;58.81;102053.52;108136;1254;60699;-80
2023/01/25 16:14:29;;;;;;;34.00;21.10;;;;;;;1.44;58.81;102055.97;108171;1254;73983;-79
2023/01/25 16:17:01;;;;;;;28.60;18.00;;;;;;;1.40;58.72;102049.34;108130;1254;71956;-79
2023/01/25 16:19:30;;;;;;;32.60;18.80;;;;;;;1.27;58.55;102047.65;108185;1254;70372;-79
2023/01/25 16:22:00;;;;;;;26.30;17.20;;;;;;;1.15;58.81;102052.73;108123;1254;59650;-78
2023/01/25 16:24:30;;;;;;;28.90;18.50;;;;;;;1.06;59.09;102052.52;108175;1254;60578;-79
2023/01/25 16:26:59;;;;;;;25.40;16.50;;;;;;;0.97;59.19;102050.91;108160;1254;72908;-80
2023/01/25 16:29:28;;;;;;;28.20;17.90;;;;;;;0.94;59.13;102051.61;108234;1254;72394;-80
2023/01/25 16:31:56;;;;;;;32.00;19.80;;;;;;;0.90;59.37;102051.89;108153;1254;71700;-79
2023/01/25 16:34:25;;;;;;;31.20;19.40;;;;;;;0.88;59.43;102050.66;108151;1255;60346;-80
2023/01/25 16:36:53;;;;;;;29.40;18.60;;;;;;;0.93;59.40;102043.77;108176;1255;60806;-80
2023/01/25 16:39:23;;;;;;;29.70;19.70;;;;;;;0.95;59.59;102043.77;108242;1256;72589;-80
2023/01/25 16:41:52;;;;;;;30.50;19.30;;;;;;;0.97;59.63;102045.13;108288;1255;71976;-78
2023/01/25 16:44:21;;;;;;;28.30;18.90;;;;;;;1.03;59.71;102044.41;108301;1256;72821;-79
2023/01/25 16:46:49;;;;;;;25.50;16.80;;;;;;;1.09;59.63;102046.77;108261;1258;59775;-79
2023/01/25 16:49:26;;;;;;;27.20;16.90;;;;;;;1.13;59.53;102047.66;108118;1255;60295;-80
2023/01/25 16:51:58;;;;;;;32.60;17.90;;;;;;;1.09;59.53;102042.48;108181;1256;71857;-80
2023/01/25 16:54:27;;;;;;;33.60;20.10;;;;;;;1.08;59.52;102044.21;108119;1256;73644;-79
2023/01/25 16:56:55;;;;;;;30.80;19.70;;;;;;;1.09;59.31;102045.73;108123;1255;73631;-79
2023/01/25 16:59:23;;;;;;;26.90;17.20;;;;;;;1.07;59.42;102039.24;108131;1256;59484;-79
2023/01/25 17:01:52;;;;;;;29.10;18.50;;;;;;;1.05;59.30;102044.73;108118;1256;61709;-80
2023/01/25 17:04:21;;;;;;;27.30;16.80;;;;;;;1.01;59.40;102044.99;108093;1254;72723;-80
2023/01/25 17:06:49;;;;;;;35.30;20.90;;;;;;;0.96;59.43;102046.48;108157;1258;70449;-80
2023/01/25 17:09:22;;;;;;;35.20;20.50;;;;;;;0.97;59.61;102046.11;108159;1254;73641;-80
2023/01/25 17:11:53;;;;;;;32.00;20.00;;;;;;;1.00;59.48;102045.03;108144;1259;61198;-79
2023/01/25 17:14:21;;;;;;;30.10;19.50;;;;;;;1.04;59.62;102045.98;108173;1254;61528;-79
2023/01/25 17:16:51;;;;;;;34.50;21.00;;;;;;;1.08;59.62;102045.11;108198;1254;71740;-79
2023/01/25 17:19:21;;;;;;;32.20;20.70;;;;;;;1.16;59.61;102045.70;108206;1254;73801;-79
2023/01/25 17:21:49;;;;;;;30.10;19.20;;;;;;;1.22;59.59;102043.13;108139;1254;73953;-79
2023/01/25 17:24:19;;;;;;;28.10;18.80;;;;;;;1.27;59.41;102039.23;108173;1254;60599;-78
2023/01/25 17:26:48;;;;;;;32.30;19.80;;;;;;;1.33;59.32;102037.96;108152;1255;61080;-80
2023/01/25 17:29:16;;;;;;;34.00;21.50;;;;;;;1.36;59.40;102035.86;107882;1256;74470;-80
2023/01/25 17:31:45;;;;;;;35.30;21.50;;;;;;;1.36;59.11;102034.69;108113;1255;72717;-79
2023/01/25 17:34:17;;;;;;;31.80;20.60;;;;;;;1.30;58.99;102031.25;108135;1255;72989;-78
2023/01/25 17:36:45;;;;;;;36.90;23.00;;;;;;;1.24;58.97;102019.55;108040;1256;61306;-78
2023/01/25 17:39:14;;;;;;;34.00;21.40;;;;;;;1.24;59.04;102018.59;108117;1255;60343;-80
2023/01/25 17:41:47;;;;;;;32.50;21.00;;;;;;;1.28;59.26;102022.50;108156;1255;72584;-79
2023/01/25 17:44:19;;;;;;;29.30;19.80;;;;;;;1.31;59.07;102024.44;108176;1255;72762;-79
2023/01/25 17:46:48;;;;;;;30.20;19.70;;;;;;;1.31;59.18;102019.36;108144;1256;72966;-79
2023/01/25 17:49:17;;;;;;;30.70;20.90;;;;;;;1.29;59.04;102021.38;108091;1256;60328;-79
2023/01/25 17:51:45;;;;;;;32.40;20.60;;;;;;;1.27;59.10;102025.77;108154;1254;59459;-79
2023/01/25 17:54:20;;;;;;;28.80;19.60;;;;;;;1.23;59.14;102021.45;108125;1255;74087;-79
2023/01/25 17:56:48;;;;;;;33.30;21.50;;;;;;;1.17;59.08;102017.52;108069;1255;72397;-79
2023/01/25 17:59:17;;;;;;;35.10;21.10;;;;;;;1.14;59.07;102017.10;108098;1256;73884;-79
2023/01/25 18:01:45;;;;;;;33.50;20.30;;;;;;;1.12;59.00;102016.90;108117;1255;60400;-79
2023/01/25 18:04:16;;;;;;;29.50;18.20;;;;;;;1.11;59.18;102017.09;108111;1258;60320;-79
2023/01/25 18:06:44;;;;;;;27.20;17.80;;;;;;;1.06;59.01;102017.36;108090;1254;72622;-79
2023/01/25 18:09:13;;;;;;;31.80;19.20;;;;;;;1.02;59.22;102022.39;108159;1254;73103;-82
2023/01/25 18:11:41;;;;;;;31.90;19.00;;;;;;;1.02;59.37;102025.54;108166;1254;70779;-82
2023/01/25 18:14:15;;;;;;;29.90;19.60;;;;;;;1.07;59.42;102025.69;108187;1254;60681;-82
2023/01/25 18:16:44;;;;;;;32.40;21.80;;;;;;;1.13;59.47;102030.55;108141;1254;60345;-81
2023/01/25 18:19:15;;;;;;;35.90;21.80;;;;;;;1.20;59.28;102026.86;108089;1255;75148;-80
2023/01/25 18:21:45;;;;;;;30.70;20.10;;;;;;;1.22;59.21;102027.66;108040;1256;72485;-80
2023/01/25 18:24:36;;;;;;;36.80;23.90;;;;;;;1.15;59.18;102029.21;108139;1254;72585;-80
2023/01/25 18:27:21;;;;;;;34.00;21.70;;;;;;;1.12;59.10;102034.53;108162;1254;60623;-80
2023/01/25 18:30:01;;;;;;;33.20;21.30;;;;;;;1.16;59.35;102037.73;108189;1254;59571;-80
2023/01/25 18:32:33;;;;;;;29.70;18.00;;;;;;;1.21;59.42;102034.34;108146;1254;73766;-80
2023/01/25 18:35:14;;;;;;;30.30;18.40;;;;;;;1.23;59.30;102036.73;108173;1254;73988;-80
2023/01/25 18:37:45;;;;;;;27.10;18.20;;;;;;;1.25;59.27;102036.85;108157;1255;73619;-79
2023/01/25 18:40:17;;;;;;;30.10;19.10;;;;;;;1.26;59.27;102033.40;108182;1253;61218;-79
2023/01/25 18:42:50;;;;;;;29.90;19.10;;;;;;;1.09;59.78;102036.58;108209;1253;61127;-79
2023/01/25 18:45:23;;;;;;;29.80;19.20;;;;;;;0.53;60.77;102038.02;108236;1253;74107;-78
2023/01/25 18:47:55;;;;;;;28.90;17.20;;;;;;;0.42;61.11;102039.17;108578;1253;72421;-78
2023/01/25 18:50:30;;;;;;;26.90;17.40;;;;;;;0.32;61.29;102036.14;108815;1253;71772;-77
2023/01/25 18:53:09;;;;;;;26.70;18.40;;;;;;;0.13;61.45;102031.55;108846;1253;59423;-73
2023/01/25 18:55:41;;;;;;;28.50;18.40;;;;;;;0.01;61.86;102039.43;108541;1253;59973;-77
2023/01/25 18:58:13;;;;;;;26.40;16.60;;;;;;;-0.04;62.02;102036.53;108189;1253;73329;-77
2023/01/25 19:01:02;;;;;;;32.90;19.90;;;;;;;-0.06;62.17;102037.23;108168;1253;73674;-78
2023/01/25 19:03:39;;;;;;;29.00;19.20;;;;;;;-0.07;62.42;102033.84;108200;1253;72485;-78
2023/01/25 19:06:23;;;;;;;24.00;14.50;;;;;;;-0.09;62.41;102032.79;108176;1253;62165;-78
2023/01/25 19:20:10;;;;;;;30.00;20.00;;;;;;;0.06;62.53;102030.44;105747;1282;612614;-80
2023/01/25 19:22:39;;;;;;;28.20;19.20;;;;;;;0.16;62.10;102027.14;107300;1266;118080;-78
2023/01/25 19:25:09;;;;;;;23.80;16.40;;;;;;;0.02;62.07;102021.61;107447;1267;60360;-79
2023/01/25 19:27:38;;;;;;;26.10;17.70;;;;;;;-0.09;62.34;102021.33;107382;1265;72727;-78
2023/01/25 19:30:10;;;;;;;29.00;18.10;;;;;;;-0.14;62.47;102018.48;107409;1266;73000;-79
2023/01/25 19:32:38;;;;;;;31.50;19.00;;;;;;;-0.14;62.61;102014.45;107413;1266;71067;-78
2023/01/25 19:35:07;;;;;;;23.60;15.70;;;;;;;-0.11;62.92;102019.00;107376;1266;60576;-80
2023/01/25 19:37:36;;;;;;;30.60;19.00;;;;;;;-0.13;62.83;102018.73;107402;1266;59685;-78
2023/01/25 19:40:07;;;;;;;31.60;19.40;;;;;;;-0.21;62.84;102013.52;107364;1266;71752;-78
2023/01/25 19:42:37;;;;;;;34.00;20.80;;;;;;;-0.24;63.28;102012.52;107391;1267;72673;-79
2023/01/25 19:45:06;;;;;;;30.80;18.80;;;;;;;-0.21;63.24;102010.02;107321;1267;71910;-78
2023/01/25 19:47:35;;;;;;;28.30;17.60;;;;;;;-0.19;63.45;102013.13;107363;1267;59859;-78
2023/01/25 19:50:05;;;;;;;29.50;19.00;;;;;;;-0.16;63.37;102011.09;107343;1267;59395;-78
2023/01/25 19:52:34;;;;;;;24.20;15.60;;;;;;;-0.12;63.53;102007.54;107407;1267;73321;-78
2023/01/25 19:55:03;;;;;;;25.80;15.70;;;;;;;-0.12;63.46;102007.27;107343;1267;72910;-78
2023/01/25 19:57:33;;;;;;;31.60;18.00;;;;;;;-0.14;63.40;102003.18;108089;1256;73039;-80
2023/01/25 20:00:03;;;;;;;30.80;17.90;;;;;;;-0.12;63.62;102003.05;108062;1256;60599;-78
2023/01/25 20:02:33;;;;;;;30.60;19.00;;;;;;;-0.09;63.34;102006.19;108072;1256;61258;-78
2023/01/25 20:05:07;;;;;;;31.00;18.00;;;;;;;-0.05;63.61;101998.60;108013;1256;72746;-78
2023/01/25 20:07:36;;;;;;;28.90;17.90;;;;;;;0.01;63.46;101995.80;108145;1257;72572;-80
2023/01/25 20:10:06;;;;;;;26.70;17.90;;;;;;;0.09;63.53;101989.23;108095;1256;73183;-79
2023/01/25 20:12:34;;;;;;;25.20;15.40;;;;;;;0.16;63.51;101988.63;108189;1256;59594;-79
2023/01/25 20:15:02;;;;;;;24.80;15.30;;;;;;;0.20;63.44;101991.02;108259;1256;59756;-80
2023/01/25 20:17:33;;;;;;;22.90;14.80;;;;;;;0.21;63.15;101990.73;107920;1256;72066;-79
2023/01/25 20:20:07;;;;;;;32.40;18.20;;;;;;;0.19;63.12;101988.70;107761;1259;73067;-80
2023/01/25 20:22:36;;;;;;;28.10;16.80;;;;;;;0.11;62.76;101992.30;107726;1256;73138;-80
2023/01/25 20:25:06;;;;;;;25.80;16.50;;;;;;;0.63;61.98;101991.80;107944;1256;61254;-80
2023/01/25 20:27:35;;;;;;;27.70;17.30;;;;;;;1.01;60.95;101992.88;107974;1256;59283;-79
2023/01/25 20:30:04;;;;;;;21.60;14.50;;;;;;;1.10;60.69;101996.60;107736;1257;73015;-81
2023/01/25 20:32:35;;;;;;;26.10;15.50;;;;;;;1.14;60.27;101995.30;93585;1256;10001692;-80
2023/01/25 20:35:05;;;;;;;26.50;16.70;;;;;;;1.10;60.00;101998.84;100290;1256;10001523;-83
2023/01/25 20:37:33;;;;;;;27.40;17.80;;;;;;;1.01;59.86;102001.76;107599;1256;72460;-81
2023/01/25 20:40:02;;;;;;;29.00;17.40;;;;;;;0.91;59.69;101999.77;107909;1257;61707;-80
2023/01/25 20:42:33;;;;;;;30.00;18.50;;;;;;;0.89;59.95;102002.24;108115;1256;59324;-80
2023/01/25 20:45:01;;;;;;;35.80;20.50;;;;;;;0.92;59.93;102000.73;107708;1259;73134;-80
2023/01/25 20:47:30;;;;;;;33.10;19.70;;;;;;;0.98;60.05;101997.88;107724;1256;72062;-78